Packwaukee, WI (53953)

3:10 AM CST on January 21, 2017 (GMT -0600)
MPAKW3 | | Change Station
Active Advisory: Dense Fog Advisory

Elev 849 ft 43.79 °N, 89.48 °W | Updated 9 seconds ago

Fog
Fog
34.0 °F
Feels Like 30 °F
N
4.0
Wind Variable Wind from ENE
Gusts 7.0 mph

Today
High -- | Low -- °F
--% Chance of Precip.
Yesterday
High -- | Low -- °F
Precip. -- in
Pressure 29.66 in
Visibility 0.5 miles
Clouds Overcast 200 ft
Windchill 30 °F
Dew Point 33.0 °F
Humidity 93%
Rainfall in
Snow Depth Not available.
7:24 AM 4:54 PM
Last Quarter, 36% visible
METAR KY50 210856Z AUTO 07005KT 1/2SM FG OVC002 01/01 A2958 RMK AO2 SLP044 60001 T00110011 56006
Pressure 29.66 in
Visibility 0.5 miles
Clouds Overcast 200 ft
Windchill 30 °F
Dew Point 33.0 °F
Humidity 93%
Rainfall in
Snow Depth Not available.
7:24 AM 4:54 PM
Last Quarter, 36% visible
METAR KY50 210856Z AUTO 07005KT 1/2SM FG OVC002 01/01 A2958 RMK AO2 SLP044 60001 T00110011 56006

Get Your Daily Forecast Email!

Thanks for signing up!

Be on the lookout for a verification email in your inbox.

You'll start receiving the daily forecast at 8 AM.

×

10-Day Weather Forecast

Almanac

Astronomy

Jan. 21, 2017 Rise Set
Actual Time
Civil Twilight
Nautical Twilight
Astronomical Twilight
Moon
Length of Visible Light
Length of Day
Tomorrow will be .
, % of the Moon is Illuminated

Today's Extremes

State Highs State Lows

Community

WunderPhotos

Upload Photos

1,962,540 photos uploaded!

WunderBlog® & News

Nearby

Air Quality

  Air Quality AQ Index Pollutant
Not available.

Snow Depth

Station Depth Elevation

Earthquake Activity

City Distance Mag. Time & Date
Minimum magnitude displayed is 2.5.

Coastal Water Temperatures

Place Temperature

Stations

Nearby Weather Stations

Station Location Temp. Windchill Dew Point Humidity Wind Precip. Elev Updated Type
                   

Watches & Warnings

Dense Fog Advisory
Issued: 9:27 PM CST Jan. 20, 2017 – National Weather Service

... Dense fog advisory remains in effect until noon CST Saturday...

A dense fog advisory remains in effect until noon CST Saturday.

* Timing... areas of dense fog through the night and Saturday
morning.

* Visibility... 1/4 mile or less.

* Impacts... severely reduced visibility will lead to poor
driving conditions. Slow down and drive with caution.

Precautionary/preparedness actions...

A dense fog advisory means visibilities will frequently be
reduced to less than one quarter mile. If driving... slow down...
use your headlights... and leave plenty of distance ahead of you.


Mbk